Latest Weather Observations for Port Hedland

IDW60801

Issued at 11:03 am WST Thursday 22 February 2018 (issued every 30 minutes, with the page automatically refreshed every 10 minutes)

About weather observations | Map of weather stations | Latest weather observations for WA | Other Formats
Station Details ID: 004032 Name: PORT HEDLAND AIRPORT Lat: -20.37 Lon: 118.63 Height: 6.4 m
Data from the previous 72 hours. | See also: Recent months at Port Hedland
Date/Time
WST
Temp
°C
App
Temp
°C
Dew
Point
°C
Rel
Hum
%
Delta-T
°C
Wind Press
QNH
hPa
Press
MSL
hPa
Rain since
9am
mm
Dir  Spd
km/h
Gust
km/h
Spd
kts
Gust
kts
22/11:00am 31.5 33.6 24.1 65 5.2 NW 20 28 11 15 1006.7 - 0.0
22/10:30am 31.8 34.3 24.7 66 5.0 NW 20 28 11 15 1006.9 - 0.0
22/10:00am 31.0 33.2 23.9 66 4.9 WNW 19 28 10 15 1007.1 - 0.0
22/09:30am 30.9 34.0 24.1 67 4.7 WNW 15 24 8 13 1007.2 - 0.0
22/09:00am 29.6 32.7 23.5 69 4.2 W 13 20 7 11 1007.5 1007.4 0.0
22/08:30am 29.5 31.6 23.7 71 4.0 W 19 20 10 11 1007.3 - 0.0
22/08:00am 28.8 31.7 23.9 75 3.4 WSW 15 20 8 11 1007.2 - 0.0
22/07:30am 28.7 32.0 24.5 78 2.9 WSW 15 20 8 11 1007.1 - 0.0
22/07:00am 27.9 32.1 24.1 80 2.6 WSW 9 13 5 7 1006.8 - 0.0
22/06:30am 26.6 30.5 24.3 87 1.6 W 11 15 6 8 1006.3 - 0.0
22/06:00am 25.8 29.4 23.8 89 1.4 W 11 13 6 7 1006.0 1005.9 0.0
22/05:30am 25.9 29.5 23.8 88 1.4 W 11 13 6 7 1005.8 - 0.0
22/05:00am 26.1 29.2 23.6 86 1.7 W 13 15 7 8 1005.6 - 0.0
22/04:30am 25.9 29.5 23.8 88 1.4 W 11 13 6 7 1005.4 - 0.0
22/04:00am 25.8 29.8 23.7 88 1.4 W 9 11 5 6 1005.3 - 0.0
22/03:30am 25.9 29.8 23.6 87 1.6 WSW 9 11 5 6 1005.3 - 0.0
22/03:00am 26.2 30.0 23.5 85 1.8 WSW 9 11 5 6 1005.3 1005.2 0.0
22/02:30am 26.2 29.6 23.3 84 2.0 W 11 15 6 8 1005.1 - 0.0
22/02:00am 26.4 30.2 23.5 84 2.0 W 9 11 5 6 1005.3 - 0.0
22/01:30am 26.5 30.5 23.8 85 1.9 W 9 11 5 6 1005.6 - 0.0
22/01:00am 26.5 30.6 24.0 86 1.7 WNW 9 11 5 6 1005.5 - 0.0
22/12:30am 26.9 30.7 24.0 84 2.0 WNW 11 15 6 8 1005.8 - 0.0
22/12:00am 27.4 31.2 24.0 82 2.3 W 11 15 6 8 1006.2 1006.1 0.0
 
Date/Time
WST
Temp
°C
App
Temp
°C
Dew
Point
°C
Rel
Hum
%
Delta-T
°C
Wind Press
QNH
hPa
Press
MSL
hPa
Rain since
9am
mm
Dir  Spd
km/h
Gust
km/h
Spd
kts
Gust
kts
21/11:30pm 27.1 31.0 24.2 84 2.0 W 11 13 6 7 1006.3 - 0.0
21/11:00pm 27.4 31.0 24.3 83 2.1 W 13 15 7 8 1006.3 - 0.0
21/10:30pm 27.4 31.2 24.0 82 2.3 W 11 15 6 8 1006.4 - 0.0
21/10:00pm 27.7 30.8 24.1 81 2.5 W 15 20 8 11 1006.2 - 0.0
21/09:30pm 27.7 30.8 24.1 81 2.5 W 15 17 8 9 1006.1 - 0.0
21/09:00pm 28.0 31.1 24.2 80 2.6 WNW 15 19 8 10 1005.8 1005.7 0.0
21/08:30pm 28.0 31.2 24.4 81 2.5 WNW 15 20 8 11 1005.4 - 0.0
21/08:00pm 28.0 31.2 24.4 81 2.5 WNW 15 20 8 11 1004.9 - 0.0
21/07:30pm 28.2 30.6 24.2 79 2.8 NW 19 24 10 13 1004.6 - 0.0
21/07:00pm 28.4 30.4 24.0 77 3.0 NW 20 26 11 14 1004.4 - 0.0
21/06:30pm 28.7 30.0 24.0 76 3.3 NW 24 28 13 15 1004.1 - 0.0
21/06:00pm 29.5 30.5 24.1 72 3.8 NW 26 32 14 17 1004.0 1003.9 0.0
21/05:30pm 30.2 31.5 24.1 70 4.2 NNW 24 32 13 17 1003.7 - 0.0
21/05:00pm 30.5 32.4 24.4 70 4.3 NW 22 32 12 17 1003.5 - 0.0
21/04:30pm 31.2 31.8 24.1 66 4.9 NW 28 33 15 18 1003.2 - 0.0
21/04:00pm 31.5 32.6 24.4 66 5.0 WNW 26 33 14 18 1003.3 - 0.0
21/03:30pm 32.1 33.2 24.4 63 5.4 NW 26 33 14 18 1003.5 - 0.0
21/03:00pm 31.6 32.5 23.9 63 5.4 NW 26 33 14 18 1003.3 1003.2 0.0
21/02:30pm 32.2 32.9 24.3 63 5.5 NW 28 35 15 19 1003.4 - 0.0
21/02:00pm 32.4 33.6 23.9 61 5.9 NW 24 33 13 18 1003.5 - 0.0
21/01:30pm 32.8 33.9 24.3 61 6.0 NW 26 35 14 19 1003.5 - 0.0
21/01:00pm 32.9 34.6 24.6 61 5.8 NW 24 32 13 17 1003.8 - 0.0
21/12:30pm 32.3 33.3 24.1 62 5.7 NW 26 32 14 17 1004.1 - 0.0
21/12:00pm 31.9 33.3 24.2 63 5.4 WNW 24 33 13 18 1004.2 1004.1 0.0
21/11:30am 31.9 33.3 24.2 63 5.4 NW 24 32 13 17 1004.5 - 0.0
21/11:00am 31.0 32.6 23.9 66 4.9 NW 22 30 12 16 1004.7 - 0.0
21/10:30am 30.9 32.8 23.8 66 4.9 WNW 20 30 11 16 1004.8 - 0.0
21/10:00am 29.8 32.1 24.4 73 3.8 NW 20 26 11 14 1005.1 - 0.0
21/09:30am 29.4 30.7 24.0 72 3.7 NNW 24 28 13 15 1005.1 - 0.0
21/09:00am 30.3 32.5 24.0 69 4.4 NW 19 24 10 13 1005.1 1005.0 0.0
21/08:30am 28.9 31.4 23.8 74 3.5 NW 17 20 9 11 1005.2 - 0.0
21/08:00am 28.9 32.2 23.8 74 3.5 WNW 13 17 7 9 1005.2 - 0.0
21/07:30am 28.2 31.5 23.8 77 3.0 WNW 13 15 7 8 1005.0 - 0.0
21/07:00am 27.9 31.1 23.7 78 2.9 WNW 13 17 7 9 1004.9 - 0.0
21/06:30am 27.4 30.9 23.6 80 2.6 NW 11 13 6 7 1004.5 - 0.0
21/06:00am 26.8 30.2 23.3 81 2.4 NW 11 13 6 7 1004.2 1004.1 0.0
21/05:30am 27.0 29.8 23.0 79 2.7 WNW 13 20 7 11 1004.0 - 0.0
21/05:00am 27.2 30.0 23.7 81 2.4 WNW 15 20 8 11 1003.7 - 0.0
21/04:30am 27.2 28.9 23.0 78 2.9 WNW 19 24 10 13 1003.5 - 0.0
21/04:00am 27.4 29.0 23.2 78 2.9 WNW 20 26 11 14 1003.3 - 0.0
21/03:30am 27.4 29.8 23.6 80 2.6 WNW 17 24 9 13 1003.4 - 0.0
21/03:00am 27.6 28.8 23.2 77 3.0 NW 22 30 12 16 1003.5 1003.4 0.0
21/02:30am 27.9 28.7 23.1 75 3.3 WNW 24 32 13 17 1003.7 - 0.0
21/02:00am 27.8 29.2 23.6 78 2.9 WNW 22 30 12 16 1003.8 - 0.0
21/01:30am 27.4 29.0 23.2 78 2.9 NW 20 28 11 15 1004.0 - 0.0
21/01:00am 27.5 29.4 23.5 79 2.7 WNW 19 22 10 12 1004.1 - 0.0
21/12:30am 27.1 29.2 23.1 79 2.7 WNW 17 20 9 11 1004.4 - 0.0
21/12:00am 27.2 28.9 23.0 78 2.9 WNW 19 26 10 14 1004.5 1004.4 0.0
 
Date/Time
WST
Temp
°C
App
Temp
°C
Dew
Point
°C
Rel
Hum
%
Delta-T
°C
Wind Press
QNH
hPa
Press
MSL
hPa
Rain since
9am
mm
Dir  Spd
km/h
Gust
km/h
Spd
kts
Gust
kts
20/11:30pm 27.4 29.3 23.4 79 2.7 WNW 19 22 10 12 1005.0 - 0.0
20/11:00pm 27.7 29.4 23.1 76 3.1 NNW 19 26 10 14 1005.1 - 0.0
20/10:30pm 27.7 28.2 22.6 74 3.5 NW 24 30 13 16 1005.1 - 0.0
20/10:00pm 27.4 28.7 22.6 75 3.2 NW 20 28 11 15 1005.3 - 0.0
20/09:30pm 27.8 29.7 23.4 77 3.0 NW 19 24 10 13 1005.2 - 0.0
20/09:00pm 27.6 29.1 23.0 76 3.1 WNW 20 26 11 14 1004.8 1004.7 0.0
20/08:30pm 27.7 29.4 23.1 76 3.1 WNW 19 26 10 14 1004.6 - 0.0
20/08:00pm 27.7 28.6 22.6 74 3.5 NW 22 32 12 17 1004.3 - 0.0
20/07:30pm 27.9 28.8 22.6 73 3.6 WNW 22 30 12 16 1004.0 - 0.0
20/07:00pm 28.1 27.9 22.8 73 3.6 NW 28 37 15 20 1003.6 - 0.0
20/06:30pm 28.4 28.3 22.9 72 3.7 NW 28 39 15 21 1003.2 - 0.0
20/06:00pm 29.0 29.0 23.0 70 4.1 NW 28 37 15 20 1003.1 1003.0 0.0
20/05:30pm 29.5 28.4 22.5 66 4.8 NW 32 39 17 21 1003.0 - 0.0
20/05:00pm 30.4 29.5 22.8 64 5.2 NW 32 43 17 23 1002.8 - 0.0
20/04:30pm 30.9 29.9 23.0 62 5.4 WNW 33 41 18 22 1002.7 - 0.0
20/04:00pm 31.1 30.0 22.4 60 5.9 NW 32 41 17 22 1002.7 - 0.0
20/03:30pm 30.6 29.3 22.5 62 5.5 WNW 33 41 18 22 1002.8 - 0.0
20/03:00pm 31.1 30.4 23.2 63 5.5 WNW 32 43 17 23 1002.9 1002.8 0.0
20/02:30pm 31.4 30.2 22.7 60 6.0 WNW 33 43 18 23 1003.2 - 0.0
20/02:00pm 30.4 29.5 22.8 64 5.2 WNW 32 43 17 23 1003.4 - 0.0
20/01:30pm 30.8 29.5 22.4 61 5.7 WNW 33 41 18 22 1003.6 - 0.0
20/01:00pm 30.8 29.1 22.4 61 5.7 WNW 35 43 19 23 1003.8 - 0.0
20/12:30pm 30.8 29.1 22.4 61 5.7 WNW 35 46 19 25 1004.2 - 0.0
20/12:00pm 32.0 30.2 23.0 59 6.2 NW 37 48 20 26 1004.2 1004.1 0.0
20/11:30am 31.2 28.8 21.9 57 6.3 WNW 37 48 20 26 1004.2 - 0.0
20/11:00am 31.6 30.7 23.2 61 5.8 WNW 33 44 18 24 1004.4 - 0.0
20/10:30am 31.4 29.3 22.4 59 6.1 WNW 37 46 20 25 1004.6 - 0.0
20/10:00am 31.4 30.0 23.0 61 5.8 WNW 35 46 19 25 1004.6 - 0.0
20/09:30am 30.7 29.1 22.6 62 5.5 NW 35 46 19 25 1004.7 - 0.0
20/09:00am 30.0 28.7 22.4 63 5.2 WNW 33 43 18 23 1004.7 1004.6 0.0
20/08:30am 29.7 28.9 23.4 69 4.3 WNW 33 44 18 24 1004.6 - 0.0
20/08:00am 28.1 28.3 23.5 76 3.2 WNW 28 37 15 20 1004.5 - 0.0
20/07:30am 27.2 28.1 23.4 80 2.6 WNW 24 30 13 16 1004.2 - 0.0
20/07:00am 26.7 27.8 23.0 80 2.5 W 22 30 12 16 1004.1 - 0.0
20/06:30am 26.3 27.7 22.8 81 2.4 W 20 26 11 14 1004.0 - 0.0
20/06:00am 26.2 27.0 22.5 80 2.5 W 22 30 12 16 1003.8 1003.7 0.0
20/05:30am 26.3 26.7 22.4 79 2.6 W 24 32 13 17 1003.5 - 0.0
20/05:00am 26.3 26.8 22.6 80 2.5 W 24 32 13 17 1003.4 - 0.0
20/04:30am 26.3 27.7 22.8 81 2.4 W 20 28 11 15 1003.6 - 0.0
20/04:00am 26.4 27.1 22.9 81 2.4 W 24 33 13 18 1003.1 - 0.0
20/03:30am 26.5 26.0 22.8 80 2.5 W 30 41 16 22 1002.9 - 0.0
20/03:00am 26.5 26.9 23.2 82 2.3 W 26 37 14 20 1002.9 1002.8 0.0
20/02:30am 26.4 27.3 23.3 83 2.1 W 24 35 13 19 1002.8 - 0.0
20/02:00am 26.4 26.4 23.1 82 2.2 W 28 39 15 21 1002.7 - 0.0
20/01:30am 26.5 26.2 23.2 82 2.2 W 30 39 16 21 1002.7 - 0.0
20/01:00am 26.6 26.2 23.1 81 2.4 W 30 41 16 22 1002.6 - 0.0
20/12:30am 26.6 26.5 22.9 80 2.5 W 28 37 15 20 1002.7 - 0.0
20/12:00am 26.7 25.9 23.0 80 2.5 W 32 43 17 23 1002.7 1002.6 0.0
 
Date/Time
WST
Temp
°C
App
Temp
°C
Dew
Point
°C
Rel
Hum
%
Delta-T
°C
Wind Press
QNH
hPa
Press
MSL
hPa
Rain since
9am
mm
Dir  Spd
km/h
Gust
km/h
Spd
kts
Gust
kts
19/11:30pm 26.9 26.6 23.2 80 2.5 W 30 39 16 21 1002.6 - 0.0
19/11:00pm 27.1 26.0 22.9 78 2.9 W 33 43 18 23 1002.8 - 0.0
19/10:30pm 27.0 26.4 23.3 80 2.5 W 32 41 17 22 1003.0 - 0.0
19/10:00pm 27.0 26.2 23.0 79 2.7 WNW 32 39 17 21 1002.7 - 0.0
19/09:30pm 27.0 26.7 22.6 77 3.0 WNW 28 39 15 21 1002.7 - 0.0
19/09:00pm 27.0 26.0 21.3 71 3.8 WNW 28 37 15 20 1002.3 1002.2 0.0
19/08:30pm 27.0 25.4 21.5 72 3.7 WNW 32 43 17 23 1001.9 - 0.0
19/08:00pm 27.2 25.7 21.7 72 3.7 WNW 32 41 17 22 1001.9 - 0.0
19/07:30pm 27.3 25.7 21.6 71 3.8 WNW 32 43 17 23 1001.6 - 0.0
19/07:15pm 27.5 26.0 21.8 71 3.8 WNW 32 50 17 27 1001.4 - 0.0
19/07:00pm 27.6 25.4 21.4 69 4.1 WNW 35 48 19 26 1001.1 - 0.0
19/06:30pm 28.1 25.5 21.4 67 4.5 W 37 50 20 27 1000.8 - 0.0
19/06:00pm 29.2 25.7 20.4 59 5.8 WNW 39 48 21 26 1000.5 1000.4 0.0
19/05:30pm 30.1 26.2 21.2 59 6.0 WNW 43 54 23 29 1000.0 - 0.0
19/05:00pm 31.3 27.8 21.8 57 6.4 WNW 43 56 23 30 999.9 - 0.0
19/04:30pm 32.0 29.1 23.0 59 6.2 WNW 43 56 23 30 999.9 - 0.0
19/04:00pm 32.9 31.4 24.1 60 6.2 WNW 39 54 21 29 999.7 - 0.0
19/03:30pm 33.0 29.9 22.7 54 7.1 WNW 43 56 23 30 999.6 - 0.0
19/03:00pm 33.6 30.5 23.0 54 7.3 WNW 44 54 24 29 999.8 999.7 0.0
19/02:30pm 34.0 31.0 22.1 50 8.1 WNW 41 54 22 29 999.9 - 0.0
19/02:00pm 34.4 31.9 23.1 51 7.8 WNW 41 54 22 29 1000.1 - 0.0
19/01:30pm 34.8 32.8 22.5 48 8.5 WNW 37 46 20 25 1000.2 - 0.0
19/01:00pm 34.4 32.5 23.4 52 7.6 WNW 39 48 21 26 1000.5 - 0.0
19/12:30pm 35.1 32.9 22.8 49 8.5 WNW 39 46 21 25 1000.7 - 0.0
19/12:00pm 35.8 34.0 21.6 43 9.7 WNW 33 44 18 24 1000.8 1000.7 0.0
19/11:30am 37.0 33.7 14.9 27 13.8 W 26 41 14 22 1001.3 - 0.0

Other Formats:

Comma delimited format used in spreadsheet applications
http://www.bom.gov.au/fwo/IDW60801/IDW60801.94312.axf

JavaScript Object Notation format (JSON) in row-major order
http://www.bom.gov.au/fwo/IDW60801/IDW60801.94312.json